Terminal Aerodrome Forecast
Issued by NWS

Home | Current Version | Previous Version | Text Only | Print | Product List | Glossary Off
Versions: 1 2 3 4 5 6 7 8 9 10 11 12 13 14 15 16 17 18 19 20 21 22 23 24 25 26

000
FTUS43 KLOT 131458 AAA
TAFORD
TAF AMD
KORD 131458Z 1315/1418 17015G25KT P6SM FEW040 BKN080 OVC150
     FM131600 19013G22KT P6SM BKN150
     FM131800 23014G21KT 6SM -SN OVC030
      TEMPO 1319/1321 2SM -SN BKN015
     FM132100 31014G25KT P6SM -SN OVC018
     FM140000 35016G27KT 6SM -SHSN OVC020
      TEMPO 1403/1406 02012G18KT 1 1/2SM -SN BKN015
     FM141000 33011KT P6SM FEW025 SCT250=

USA.gov is the U.S. government's official web portal to all federal, state and local government web resources and services.